• Join FlightAware (Why Join?)
  • Login
  • US Flag 
11:45PM EST


 

Airport Tracker/Info


-or-


 

Live Flight TrackerFlight Track Log ✈ AM223 ✈ 12-Apr-2013 ✈ YGTH / GFF - YSSY / SYD

Flight Track Log - Related Links

Times and Time Zones

All times are in EDT time to prevent confusion due to time zone crossing. See the AM223 flight status page for this flight to view local times or setup timezone preferences in your user account.

Time Position Orientation Groundspeed Altitude Reporting Facility
EDT Latitude Longitude Course Direction KTS MPH feet Rate Location/Type
02:04PM -34.2772 146.0567 76° East 21,000  Level Aus ATC (Calculated)
02:05PM -34.2753 146.1936 334° Northwest 21,000 -11,205 Level Aus ATC (Calculated)
02:05PM -34.2510 146.1790 90° East 150 173 5,500 -30,200 Descending FlightAware
02:05PM -34.2510 146.1880 90° East 151 174 5,900 2,400 Climbing FlightAware
02:06PM -34.2500 146.2090 87° East 151 174 6,900 2,400 Climbing FlightAware
02:06PM -34.2500 146.2240 90° East 153 176 7,500 2,533 Climbing FlightAware
02:07PM -34.2490 146.2490 87° East 144 166 8,800 2,400 Climbing FlightAware
02:07PM -34.2480 146.2640 87° East 142 163 9,500 3,120 Climbing FlightAware
02:07PM -34.2454 146.2713 87° East 145 167 10,100 2,160 Climbing Aus ATC (RADAR)
02:08PM -34.2470 146.3060 88° East 152 175 11,300 2,031 Climbing FlightAware
02:08PM -34.2453 146.3243 88° East 155 178 12,300 2,100 Climbing Aus ATC (RADAR)
02:08PM -34.2450 146.3420 88° East 158 182 12,700 1,932 Climbing FlightAware
02:09PM -34.2414 146.3790 88° East 168 193 14,200 1,733 Climbing Aus ATC (RADAR)
02:09PM -34.2440 146.3830 88° East 168 193 14,000 1,412 Descending FlightAware
02:10PM -34.2420 146.4230 87° East 170 196 15,400 1,835 Climbing FlightAware
02:11PM -34.2400 146.4640 87° East 176 203 16,600 1,650 Climbing FlightAware
02:11PM -34.2380 146.5020 86° East 181 208 17,600 1,482 Climbing FlightAware
02:12PM -34.2360 146.5450 87° East 186 214 18,700 1,899 Climbing FlightAware
02:13PM -34.2344 146.5864 87° East 186 214 20,100 1,650 Climbing Aus ATC (RADAR)
02:13PM -34.2350 146.5870 87° East 187 215 19,800 913 Descending FlightAware
02:13PM -34.2330 146.6330 87° East 193 222 20,800 1,627 Climbing FlightAware
02:14PM -34.2318 146.6566 87° East 196 226 21,400 267 Climbing Aus ATC (RADAR)
02:14PM -34.2300 146.6880 87° East 240 276 21,000 -393 Descending FlightAware
02:15PM -34.2280 146.7330 87° East 262 302 21,000 462 Level FlightAware
02:15PM -34.2274 146.7455 87° East 251 289 21,300  Climbing Aus ATC (RADAR)
02:16PM -34.2230 146.8330 87° East 284 327 21,000 -178 Descending FlightAware
02:16PM -34.2200 146.8980 87° East 292 336 21,000 281 Level FlightAware
02:17PM -34.2181 146.9436 87° East 288 331 21,300  Climbing Aus ATC (RADAR)
02:17PM -34.2170 146.9640 87° East 296 341 21,000  Descending FlightAware
02:18PM -34.2130 147.0435 87° East 294 338 21,300  Climbing Aus ATC (RADAR)
02:18PM -34.2130 147.0380 87° East 300 345 21,000 -439 Descending FlightAware
02:18PM -34.2100 147.1070 87° East 302 348 21,000 286 Level FlightAware
02:19PM -34.2079 147.1525 87° East 296 341 21,300  Climbing Aus ATC (RADAR)
02:19PM -34.2060 147.1840 87° East 303 349 21,000  Descending FlightAware
02:20PM -34.2026 147.2536 87° East 299 344 21,300  Climbing Aus ATC (RADAR)
02:20PM -34.2030 147.2520 87° East 304 350 21,000 -429 Descending FlightAware
02:21PM -34.1990 147.3210 86° East 305 351 21,000 310 Level FlightAware
02:21PM -34.1979 147.3555 86° East 299 344 21,300  Climbing Aus ATC (RADAR)
02:22PM -34.1940 147.4340 86° East 305 351 21,000 -186 Descending FlightAware
02:22PM -34.1900 147.5120 86° East 304 350 21,000 247 Level FlightAware
02:23PM -34.1877 147.5669 86° East 297 342 21,300  Climbing Aus ATC (RADAR)
02:23PM -34.1860 147.5810 86° East 304 350 21,000 -316 Descending FlightAware
02:24PM -34.1820 147.6570 86° East 304 350 21,000  Level FlightAware
02:25PM -34.1790 147.7220 87° East 304 350 21,000 231 Level FlightAware
02:25PM -34.1748 147.7955 87° East 298 343 21,300  Climbing Aus ATC (RADAR)
02:25PM -34.1750 147.7930 87° East 304 350 21,000 -383 Descending FlightAware
02:26PM -34.1700 147.8700 86° East 304 350 21,000 231 Level FlightAware
02:27PM -34.1670 147.9310 86° East 298 343 21,300  Climbing Aus ATC (RADAR)
02:27PM -34.1670 147.9380 86° East 304 350 21,000  Descending FlightAware
02:27PM -34.1632 148.0070 86° East 299 344 21,300  Climbing Aus ATC (RADAR)
02:27PM -34.1630 148.0060 86° East 304 350 21,000 -383 Descending FlightAware
02:28PM -34.1590 148.0810 86° East 304 350 21,000  Level FlightAware
02:29PM -34.1550 148.1500 86° East 304 350 21,000  Level FlightAware
02:29PM -34.1500 148.2270 86° East 305 351 21,000 286 Level FlightAware
02:30PM -34.1483 148.2610 86° East 298 343 21,300  Climbing Aus ATC (RADAR)
02:30PM -34.1460 148.2960 86° East 305 351 21,000 -269 Descending FlightAware
02:31PM -34.1420 148.3720 86° East 304 350 21,000 234 Level FlightAware
02:31PM -34.1383 148.4302 86° East 296 341 21,300  Climbing Aus ATC (RADAR)
02:32PM -34.1380 148.4400 86° East 304 350 21,000 -375 Descending FlightAware
02:32PM -34.1340 148.5080 86° East 304 350 21,000 250 Level FlightAware
02:33PM -34.1300 148.5657 86° East 299 344 21,300  Climbing Aus ATC (RADAR)
02:33PM -34.1290 148.5850 86° East 304 350 21,000 -340 Descending FlightAware
02:34PM -34.1250 148.6540 86° East 305 351 21,000  Level FlightAware
02:34PM -34.1200 148.7300 85° East 306 352 21,000 250 Level FlightAware
02:35PM -34.1167 148.7778 85° East 299 344 21,300  Climbing Aus ATC (RADAR)
02:35PM -34.1170 148.7810 85° East 305 351 21,000  Descending FlightAware
02:36PM -34.1093 148.8964 85° East 297 342 21,300  Climbing Aus ATC (RADAR)
02:36PM -34.1090 148.9110 85° East 305 351 21,000  Descending FlightAware
02:37PM -34.1027 148.9983 85° East 299 344 21,300  Climbing Aus ATC (RADAR)
02:38PM -34.0990 149.0550 85° East 304 350 21,000  Descending FlightAware
02:38PM -34.0954 149.1078 85° East 295 339 21,300  Climbing Aus ATC (RADAR)
02:39PM -34.0920 149.1730 85° East 303 349 21,000  Descending FlightAware
02:39PM -34.0882 149.2177 85° East 297 342 21,300  Climbing Aus ATC (RADAR)
02:39PM -34.0870 149.2420 85° East 303 349 21,000  Descending FlightAware
02:40PM -34.0814 149.3186 85° East 296 341 21,300  Climbing Aus ATC (RADAR)
02:40PM -34.0820 149.3210 85° East 303 349 21,000 -419 Descending FlightAware
02:41PM -34.0770 149.3890 85° East 303 349 21,000 295 Level FlightAware
02:41PM -34.0741 149.4277 85° East 295 339 21,300  Climbing Aus ATC (RADAR)
02:42PM -34.0720 149.4580 85° East 303 349 21,000 -305 Descending FlightAware
02:42PM -34.0680 149.5260 85° East 303 349 21,000 439 Level FlightAware
02:42PM -34.0671 149.5290 85° East 297 342 21,300  Climbing Aus ATC (RADAR)
02:43PM -34.0630 149.6010 85° East 304 350 21,000  Descending FlightAware
02:43PM -34.0598 149.6390 85° East 297 342 21,300 222 Climbing Aus ATC (RADAR)
02:44PM -34.0529 149.7405 85° East 298 343 21,300 -191 Level Aus ATC (RADAR)
02:45PM -34.0490 149.7900 85° East 304 350 21,000  Descending FlightAware
02:45PM -34.0449 149.8503 85° East 298 343 21,300  Climbing Aus ATC (RADAR)
02:46PM -34.0410 149.9090 85° East 304 350 21,000  Descending FlightAware
02:47PM -34.0365 149.9687 85° East 296 341 21,300  Climbing Aus ATC (RADAR)
02:47PM -34.0360 149.9770 85° East 304 350 21,000 -333 Descending FlightAware
02:47PM -34.0300 150.0530 85° East 304 350 21,000 254 Level FlightAware
02:48PM -34.0268 150.1040 85° East 297 342 21,300  Climbing Aus ATC (RADAR)
02:48PM -34.0250 150.1220 85° East 305 351 21,000  Descending FlightAware
02:49PM -34.0213 150.1802 85° East 297 342 21,300  Climbing Aus ATC (RADAR)
02:49PM -34.0200 150.1920 85° East 305 351 21,000 -490 Descending FlightAware
02:49PM -34.0150 150.2590 85° East 309 356 20,900 -1,129 Descending FlightAware
02:50PM -34.0090 150.3390 85° East 322 371 19,400 -1,835 Descending FlightAware
02:51PM -34.0040 150.4100 85° East 316 364 18,300 -1,553 Descending FlightAware
02:52PM -33.9980 150.4870 85° East 311 358 17,200 -1,412 Descending FlightAware
02:52PM -33.9930 150.5520 85° East 307 353 16,300 -1,292 Descending FlightAware
02:53PM -33.9890 150.6029 85° East 291 335 15,800 -1,650 Descending Aus ATC (RADAR)
02:53PM -33.9870 150.6230 85° East 301 346 15,200 -1,700 Descending FlightAware
02:54PM -33.9820 150.6980 85° East 291 335 14,100 -1,286 Descending FlightAware
02:54PM -33.9783 150.7416 85° East 275 316 13,700 -1,500 Descending Aus ATC (RADAR)
02:54PM -33.9770 150.7590 85° East 283 326 13,100 -1,733 Descending FlightAware
02:55PM -33.9860 150.8020 104° East 280 322 12,400 -1,569 Descending FlightAware
02:55PM -34.0170 150.8460 130° Southeast 269 310 11,400 -1,309 Descending FlightAware
02:56PM -34.0364 150.8706 130° Southeast 265 305 11,200 -1,440 Descending Aus ATC (RADAR)
02:56PM -34.0570 150.8950 130° Southeast 244 281 10,200 -1,867 Descending FlightAware
02:57PM -34.0710 150.9110 137° Southeast 228 262 9,800 -1,650 Descending FlightAware
02:57PM -34.0920 150.9330 139° Southeast 220 253 9,100 -1,200 Descending FlightAware
02:57PM -34.1051 150.9460 139° Southeast 221 254 9,000 -1,400 Descending Aus ATC (RADAR)
02:57PM -34.1150 150.9560 139° Southeast 216 249 8,400 -1,500 Descending FlightAware
02:58PM -34.1360 150.9785 139° Southeast 215 247 8,000 -1,440 Descending Aus ATC (RADAR)
02:58PM -34.1340 150.9770 139° Southeast 217 250 7,800 -2,400 Descending FlightAware
02:58PM -34.1420 150.9910 125° Southeast 212 244 7,400 -1,500 Descending FlightAware
02:59PM -34.1480 151.0190 105° East 206 237 6,800 -1,371 Descending FlightAware
02:59PM -34.1500 151.0280 105° East 205 236 6,600 -960 Descending FlightAware
02:59PM -34.1552 151.0496 105° East 196 226 6,400 -1,400 Descending Aus ATC (RADAR)
02:59PM -34.1570 151.0580 105° East 198 228 5,900 -1,800 Descending FlightAware
02:59PM -34.1610 151.0740 107° East 198 228 5,500 -1,385 Descending FlightAware
03:00PM -34.1767 151.1332 107° East 189 217 4,400 -1,600 Descending Aus ATC (RADAR)
03:01PM -34.1990 151.1690 107° East 196 226 3,100 -842 Descending FlightAware
03:02PM -34.1591 151.2105 107° East 183 211 2,800 -480 Descending Aus ATC (RADAR)
03:03PM -34.1010 151.2170 North 183 211 1,900 -525 Descending FlightAware
03:04PM -34.0921 151.2150 North 183 211 2,100 -87 Climbing Aus ATC (RADAR)
03:05PM -34.0477 151.2022 North 146 168 1,800 -576 Descending Aus ATC (RADAR)
03:06PM -34.0058 151.1915 348° North 154 177 900 -768 Descending Aus ATC (RADAR)
03:07PM -33.9660 151.1812 348° North 127 146 200 -646 Descending Aus ATC (RADAR)
03:10PM -33.9360 151.1860 348° North 21 24 -56 Descending FlightAware
03:13PM -33.9460 151.1771 225° Southwest  Level FlightAware Approximate
03:14PM -33.9461 151.1772 225° Southwest  Level Estimated
03:15PM -33.9460 151.1771 225° Southwest  Level FlightAware Approximate
03:16PM -33.9461 151.1772 225° Southwest  Level Estimated
03:17PM -33.9460 151.1771 225° Southwest  Level FlightAware Approximate